Flight Track Log - Related Links

Times and Time Zones

All times are in EDT time to prevent confusion due to time zone crossing. See the TRS1193 flight status page for this flight to view local times or setup timezone preferences in your user account.

Time Position Orientation Groundspeed Altitude Reporting Facility
EDT Latitude Longitude Course Direction KTS MPH feet Rate Location/Type
Thu 09:43:43 PM 33.6497 -84.3633 72° East 451 519 2,500  Level Atlanta Center
Thu 09:44:31 PM 33.6667 -84.3000 76° East 251 289 3,600 1,944 Climbing Atlanta TRACON
Thu 09:45:31 PM 33.6833 -84.2167 76° East 266 306 6,000 2,368 Climbing Atlanta TRACON
Thu 09:46:25 PM 33.7000 -84.1333 64° Northeast 273 314 8,100 2,316 Climbing Atlanta TRACON
Thu 09:47:25 PM 33.7333 -84.0500 59° Northeast 295 339 10,400 1,952 Climbing Atlanta TRACON
Thu 09:48:31 PM 33.7833 -83.9500 46° Northeast 329 379 12,200 1,810 Climbing Atlanta TRACON
Thu 09:49:31 PM 33.8500 -83.8667 59° Northeast 365 420 14,200 2,150 Climbing Atlanta TRACON
Thu 09:50:31 PM 33.9000 -83.7667 49° Northeast 375 432 16,500 2,190 Climbing Atlanta TRACON
Thu 09:51:37 PM 33.9833 -83.6500 58° Northeast 386 444 18,800 1,909 Climbing Atlanta TRACON
Thu 09:52:43 PM 34.0394 -83.5400 52° Northeast 387 445 20,700 1,571 Climbing Atlanta Center
Thu 09:53:43 PM 34.1100 -83.4317 53° Northeast 398 458 22,100 1,500 Climbing Atlanta Center
Thu 09:54:43 PM 34.1867 -83.3081 53° Northeast 412 474 23,700 1,500 Climbing Atlanta Center
Thu 09:55:43 PM 34.2589 -83.1919 52° Northeast 422 486 25,100 1,350 Climbing Atlanta Center
Thu 09:56:43 PM 34.3331 -83.0753 54° Northeast 427 491 26,400 1,100 Climbing Atlanta Center
Thu 09:57:43 PM 34.4053 -82.9536 51° Northeast 436 502 27,300 1,000 Climbing Atlanta Center
Thu 09:58:43 PM 34.4853 -82.8317 55° Northeast 442 509 28,400 1,200 Climbing Atlanta Center
Thu 09:59:43 PM 34.5592 -82.7019 52° Northeast 455 524 29,700 1,200 Climbing Atlanta Center
Thu 10:00:43 PM 34.6186 -82.6078 53° Northeast 455 524 30,800 1,050 Climbing Atlanta Center
Thu 10:01:43 PM 34.7025 -82.4722 52° Northeast 455 524 31,800 1,000 Climbing Atlanta Center
Thu 10:02:43 PM 34.7803 -82.3494 55° Northeast 455 524 32,800 600 Climbing Atlanta Center
Thu 10:03:43 PM 34.8536 -82.2239 52° Northeast 455 524 33,000 100 Climbing Atlanta Center
Thu 10:04:43 PM 34.9350 -82.0956 54° Northeast 455 524 33,000  Level Atlanta Center
Thu 10:05:43 PM 35.0103 -81.9694 56° Northeast 447 514 33,000  Level Atlanta Center
Thu 10:06:43 PM 35.0789 -81.8433 57° Northeast 447 514 33,000  Level Atlanta Center
Thu 10:07:43 PM 35.1475 -81.7144 58° Northeast 447 514 33,000  Level Atlanta Center
Thu 10:08:43 PM 35.2139 -81.5856 57° Northeast 447 514 33,000  Level Atlanta Center
Thu 10:09:43 PM 35.2800 -81.4589 57° Northeast 447 514 33,000  Level Atlanta Center
Thu 10:10:43 PM 35.3483 -81.3294 58° Northeast 447 514 33,000  Level Atlanta Center
Thu 10:11:43 PM 35.4161 -81.1972 58° Northeast 447 514 33,000  Level Atlanta Center
Thu 10:12:43 PM 35.4842 -81.0650 57° Northeast 458 527 33,000  Level Atlanta Center
Thu 10:13:43 PM 35.5539 -80.9347 57° Northeast 463 533 33,000  Level Atlanta Center
Thu 10:14:43 PM 35.6233 -80.8017 57° Northeast 463 533 33,000  Level Atlanta Center
Thu 10:15:43 PM 35.6928 -80.6686 58° Northeast 463 533 33,000  Level Atlanta Center
Thu 10:16:43 PM 35.7619 -80.5328 57° Northeast 463 533 33,000  Level Atlanta Center
Thu 10:17:43 PM 35.8311 -80.3992 58° Northeast 463 533 33,000  Level Atlanta Center
Thu 10:20:05 PM 35.9792 -80.1044 57° Northeast 468 539 33,000  Level Washington Center
Thu 10:21:06 PM 36.0600 -79.9497 53° Northeast 455 524 33,000  Level Washington Center
Thu 10:22:07 PM 36.1400 -79.8178 50° Northeast 465 535 33,000  Level Washington Center
Thu 10:23:07 PM 36.2192 -79.7011 48° Northeast 479 551 33,000  Level Washington Center
Thu 10:24:05 PM 36.3175 -79.5669 49° Northeast 479 551 33,000  Level Washington Center
Thu 10:25:06 PM 36.3964 -79.4550 49° Northeast 474 545 33,000  Level Washington Center
Thu 10:26:07 PM 36.4836 -79.3300 49° Northeast 474 545 33,000  Level Washington Center
Thu 10:27:07 PM 36.5797 -79.1925 49° Northeast 474 545 33,000 -102 Level Washington Center
Thu 10:28:05 PM 36.6647 -79.0719 47° Northeast 468 539 32,800 -1,424 Descending Washington Center
Thu 10:29:05 PM 36.7536 -78.9517 50° Northeast 468 539 30,200 -2,479 Descending Washington Center
Thu 10:30:06 PM 36.8278 -78.8406 48° Northeast 468 539 27,800 -2,281 Descending Washington Center
Thu 10:31:06 PM 36.9122 -78.7247 50° Northeast 462 532 25,600 -1,388 Descending Washington Center
Thu 10:32:07 PM 36.9881 -78.6108 48° Northeast 444 511 25,000 -303 Descending Washington Center
Thu 10:33:05 PM 37.0789 -78.4842 46° Northeast 438 504 25,000 -202 Level Washington Center
Thu 10:34:06 PM 37.1628 -78.3753 36° Northeast 438 504 24,600 -639 Descending Washington Center
Thu 10:35:07 PM 37.2564 -78.2900 35° Northeast 420 483 23,700 -958 Descending Washington Center
Thu 10:36:05 PM 37.3500 -78.2069 36° Northeast 415 478 22,700 -1,017 Descending Washington Center
Thu 10:37:05 PM 37.4308 -78.1339 36° Northeast 404 465 21,700 -1,000 Descending Washington Center
Thu 10:38:05 PM 37.5203 -78.0506 35° Northeast 399 459 20,700 -992 Descending Washington Center
Thu 10:39:06 PM 37.6094 -77.9722 36° Northeast 393 452 19,700 -992 Descending Washington Center
Thu 10:40:06 PM 37.6944 -77.8933 36° Northeast 388 447 18,700 -908 Descending Washington Center
Thu 10:41:05 PM 37.7814 -77.8147 36° Northeast 388 447 17,900 -908 Descending Washington Center
Thu 10:42:05 PM 37.8664 -77.7356 36° Northeast 383 441 16,900 -1,488 Descending Washington Center
Thu 10:43:06 PM 37.9511 -77.6589 36° Northeast 378 435 14,900 -1,884 Descending Washington Center
Thu 10:44:06 PM 38.0400 -77.5769 36° Northeast 366 421 13,100 -1,900 Descending Washington Center
Thu 10:45:06 PM 38.1036 -77.5181 36° Northeast 351 404 11,100 -1,339 Descending Washington Center
Thu 10:46:07 PM 38.1714 -77.4564 14° North 319 367 10,400 -545 Descending Washington Center
Thu 10:47:07 PM 38.2489 -77.4319 340° North 304 350 10,000 -706 Descending Washington Center
Thu 10:48:06 PM 38.3233 -77.4656 356° North 267 307 9,000 -1,400 Descending Washington Center
Thu 10:49:07 PM 38.4003 -77.4728 North 267 307 7,200 -1,462 Descending Washington Center
Thu 10:50:05 PM 38.4733 -77.4719 North 272 313 6,100 -966 Descending Washington Center
Thu 10:51:05 PM 38.5506 -77.4686 North 272 313 5,300 -843 Descending Washington Center
Thu 10:52:06 PM 38.6236 -77.4678 360° North 272 313 4,400 -650 Descending Washington Center
Thu 10:53:05 PM 38.7050 -77.4672 360° North 272 313 4,000 -319 Descending Washington Center
Thu 10:53:59 PM 38.7667 -77.4667 360° North 257 296 3,800 -783 Descending Potomac TRACON
Thu 10:55:00 PM 38.8167 -77.4667 360° North 225 259 2,500 -1,091 Descending Potomac TRACON
Thu 10:56:00 PM 38.8667 -77.4667 360° North 182 209 1,600 -850 Descending Potomac TRACON
Thu 10:57:00 PM 38.9167 -77.4667 360° North 145 167 800 -800 Descending Potomac TRACON

Login

Don't have an account? Register now (free) for customized features, flight alerts, and more!